Airfield :
LOGIN :

Register | Disclaimer

   EN    FR    IT 

 










Legend :    VFR   Marginal VFR   IFR   Intensive IFR   Very Intensive IFR
Visi :
Ceiling :
>= 8 km
>= 3000ft
5 to 8 km
1000 to 3000 ft
1500m to 5 km
500 to 1000 ft
800 to 1500m
200 to 500 ft
< 800m
< 200 ft
Symbols :   Thunderstorms  Fog  Heavy snow  Heavy precipitations  Wind > 20 kt
SIGMETs :     Misc.  Thunderstorms  Icing  Turbulence  Mountain Waves  Volcanic Ashes






- Airport Elevation : 87 ft
- IATA code : FSC


LFKF - Figari

CURRENT METAR :
  • 290830Z AUTO 23020KT 9999 BKN025 BKN030 23/16 Q1003 BECMG 24010KT

EXPIRED METARs :
  • 290800Z AUTO 23020KT 9999 FEW024 23/15 Q1003 BECMG 24010KT
  • 290730Z AUTO 24018KT 9999 BKN024 BKN030 BKN230 23/16 Q1003 NOSIG
  • 290700Z AUTO 24018KT 9999 BKN024 BKN029 22/15 Q1003 NOSIG
  • 290630Z AUTO 25017KT 9999 BKN024 22/15 Q1002 NOSIG
  • 290600Z AUTO 25014KT 9999 BKN024 22/15 Q1002 NOSIG
  • 290530Z AUTO 25010KT 9999 BKN026 21/15 Q1002 NOSIG

TAF TAF LFKF
Valid from the 29 at 03:00 until the 30 at 03:00 UTC


290200Z 2903/3003 24010KT 9999 SCT020 SCT025
TEMPO 2911/2919 25015G25KT



MET'MAP, your aeronautical weather chart ! - Copyright ORBIFLY December 2007 - Disclaimer

ORBIFLY MET'MAP TEAM :

Programming & Development : Alexandra Zaïnal
Original concept : Baudouin d'Aumeries
Technical & hardware support : Manuel Goepfert
Assistance : Marc-Olivier Méhu

Contact : metmap@orbifly.com




SOURCES & CREDITS :

   NOAA